sensor_id;sensor_type;location;lat;lon;timestamp;temperature;humidity
18721;DHT22;9489;50.948;3.114;2023-11-21T00:00:19;9.70;99.90
18721;DHT22;9489;50.948;3.114;2023-11-21T00:02:45;9.70;99.90
18721;DHT22;9489;50.948;3.114;2023-11-21T00:05:12;9.70;99.90
18721;DHT22;9489;50.948;3.114;2023-11-21T00:07:40;9.80;99.90
18721;DHT22;9489;50.948;3.114;2023-11-21T00:10:06;9.80;99.90
18721;DHT22;9489;50.948;3.114;2023-11-21T00:12:34;9.80;99.90
18721;DHT22;9489;50.948;3.114;2023-11-21T00:14:59;9.80;99.90
18721;DHT22;9489;50.948;3.114;2023-11-21T00:17:25;9.80;99.90
18721;DHT22;9489;50.948;3.114;2023-11-21T00:19:50;9.80;99.90
18721;DHT22;9489;50.948;3.114;2023-11-21T00:22:18;9.90;99.90
18721;DHT22;9489;50.948;3.114;2023-11-21T00:24:44;9.80;99.90
18721;DHT22;9489;50.948;3.114;2023-11-21T00:27:10;9.80;99.90
18721;DHT22;9489;50.948;3.114;2023-11-21T00:29:35;9.90;99.90
18721;DHT22;9489;50.948;3.114;2023-11-21T00:32:01;9.90;99.90
18721;DHT22;9489;50.948;3.114;2023-11-21T00:34:27;9.90;99.90
18721;DHT22;9489;50.948;3.114;2023-11-21T00:36:53;9.90;99.90
18721;DHT22;9489;50.948;3.114;2023-11-21T00:39:18;9.90;99.90
18721;DHT22;9489;50.948;3.114;2023-11-21T00:41:44;9.90;99.90
18721;DHT22;9489;50.948;3.114;2023-11-21T00:44:11;9.90;99.90
18721;DHT22;9489;50.948;3.114;2023-11-21T00:46:36;9.90;99.90
18721;DHT22;9489;50.948;3.114;2023-11-21T00:49:02;9.90;99.90
18721;DHT22;9489;50.948;3.114;2023-11-21T00:51:30;9.90;99.90
18721;DHT22;9489;50.948;3.114;2023-11-21T00:53:55;9.90;99.90
18721;DHT22;9489;50.948;3.114;2023-11-21T00:56:22;10.00;99.90
18721;DHT22;9489;50.948;3.114;2023-11-21T00:58:47;10.00;99.90
18721;DHT22;9489;50.948;3.114;2023-11-21T01:01:16;10.00;99.90
18721;DHT22;9489;50.948;3.114;2023-11-21T01:03:42;10.00;99.90
18721;DHT22;9489;50.948;3.114;2023-11-21T01:06:08;9.90;99.90
18721;DHT22;9489;50.948;3.114;2023-11-21T01:08:34;9.90;99.90
18721;DHT22;9489;50.948;3.114;2023-11-21T01:11:01;9.90;99.90
18721;DHT22;9489;50.948;3.114;2023-11-21T01:13:27;9.90;99.90
18721;DHT22;9489;50.948;3.114;2023-11-21T01:15:55;10.00;99.90
18721;DHT22;9489;50.948;3.114;2023-11-21T01:18:21;10.00;99.90
18721;DHT22;9489;50.948;3.114;2023-11-21T01:20:47;10.00;99.90
18721;DHT22;9489;50.948;3.114;2023-11-21T01:23:16;10.00;99.90
18721;DHT22;9489;50.948;3.114;2023-11-21T01:25:41;10.00;99.90
18721;DHT22;9489;50.948;3.114;2023-11-21T01:28:07;10.00;99.90
18721;DHT22;9489;50.948;3.114;2023-11-21T01:30:32;10.00;99.90
18721;DHT22;9489;50.948;3.114;2023-11-21T01:32:59;10.00;99.90
18721;DHT22;9489;50.948;3.114;2023-11-21T01:35:24;10.00;99.90
18721;DHT22;9489;50.948;3.114;2023-11-21T01:37:50;10.00;99.90
18721;DHT22;9489;50.948;3.114;2023-11-21T01:40:16;10.00;99.90
18721;DHT22;9489;50.948;3.114;2023-11-21T01:42:42;10.00;99.90
18721;DHT22;9489;50.948;3.114;2023-11-21T01:45:09;10.00;99.90
18721;DHT22;9489;50.948;3.114;2023-11-21T01:47:36;10.00;99.90
18721;DHT22;9489;50.948;3.114;2023-11-21T01:50:07;10.00;99.90
18721;DHT22;9489;50.948;3.114;2023-11-21T01:52:34;10.00;99.90
18721;DHT22;9489;50.948;3.114;2023-11-21T01:55:01;10.00;99.90
18721;DHT22;9489;50.948;3.114;2023-11-21T01:57:28;10.00;99.90
18721;DHT22;9489;50.948;3.114;2023-11-21T01:59:54;10.00;99.90
18721;DHT22;9489;50.948;3.114;2023-11-21T02:02:20;10.00;99.90
18721;DHT22;9489;50.948;3.114;2023-11-21T02:04:46;10.00;99.90
18721;DHT22;9489;50.948;3.114;2023-11-21T02:07:11;10.00;99.90
18721;DHT22;9489;50.948;3.114;2023-11-21T02:09:37;10.10;99.90
18721;DHT22;9489;50.948;3.114;2023-11-21T02:12:08;10.10;99.90
18721;DHT22;9489;50.948;3.114;2023-11-21T02:14:36;10.10;99.90
18721;DHT22;9489;50.948;3.114;2023-11-21T02:17:02;10.10;99.90
18721;DHT22;9489;50.948;3.114;2023-11-21T02:19:28;10.10;99.90
18721;DHT22;9489;50.948;3.114;2023-11-21T02:21:56;10.10;99.90
18721;DHT22;9489;50.948;3.114;2023-11-21T02:24:28;10.10;99.90
18721;DHT22;9489;50.948;3.114;2023-11-21T02:26:54;10.10;99.90
18721;DHT22;9489;50.948;3.114;2023-11-21T02:29:21;10.10;99.90
18721;DHT22;9489;50.948;3.114;2023-11-21T02:31:55;10.10;99.90
18721;DHT22;9489;50.948;3.114;2023-11-21T02:34:22;10.20;99.90
18721;DHT22;9489;50.948;3.114;2023-11-21T02:36:48;10.10;99.90
18721;DHT22;9489;50.948;3.114;2023-11-21T02:39:17;10.20;99.90
18721;DHT22;9489;50.948;3.114;2023-11-21T02:41:44;10.20;99.90
18721;DHT22;9489;50.948;3.114;2023-11-21T02:44:10;10.20;99.90
18721;DHT22;9489;50.948;3.114;2023-11-21T02:46:36;10.20;99.90
18721;DHT22;9489;50.948;3.114;2023-11-21T02:49:03;10.30;99.90
18721;DHT22;9489;50.948;3.114;2023-11-21T02:51:29;10.30;99.90
18721;DHT22;9489;50.948;3.114;2023-11-21T02:53:55;10.20;99.90
18721;DHT22;9489;50.948;3.114;2023-11-21T02:56:27;10.30;99.90
18721;DHT22;9489;50.948;3.114;2023-11-21T02:58:55;10.30;99.90
18721;DHT22;9489;50.948;3.114;2023-11-21T03:01:22;10.30;99.90
18721;DHT22;9489;50.948;3.114;2023-11-21T03:03:49;10.30;99.90
18721;DHT22;9489;50.948;3.114;2023-11-21T03:06:17;10.40;99.90
18721;DHT22;9489;50.948;3.114;2023-11-21T03:08:43;10.40;99.90
18721;DHT22;9489;50.948;3.114;2023-11-21T03:11:08;10.40;99.90
18721;DHT22;9489;50.948;3.114;2023-11-21T03:13:34;10.40;99.90
18721;DHT22;9489;50.948;3.114;2023-11-21T03:15:59;10.40;99.90
18721;DHT22;9489;50.948;3.114;2023-11-21T03:18:25;10.50;99.90
18721;DHT22;9489;50.948;3.114;2023-11-21T03:20:52;10.40;99.90
18721;DHT22;9489;50.948;3.114;2023-11-21T03:23:18;10.40;99.90
18721;DHT22;9489;50.948;3.114;2023-11-21T03:25:44;10.50;99.90
18721;DHT22;9489;50.948;3.114;2023-11-21T03:28:09;10.50;99.90
18721;DHT22;9489;50.948;3.114;2023-11-21T03:30:35;10.50;99.90
18721;DHT22;9489;50.948;3.114;2023-11-21T03:33:01;10.50;99.90
18721;DHT22;9489;50.948;3.114;2023-11-21T03:35:26;10.50;99.90
18721;DHT22;9489;50.948;3.114;2023-11-21T03:37:53;10.50;99.90
18721;DHT22;9489;50.948;3.114;2023-11-21T03:40:19;10.50;99.90
18721;DHT22;9489;50.948;3.114;2023-11-21T03:42:46;10.50;99.90
18721;DHT22;9489;50.948;3.114;2023-11-21T03:45:11;10.50;99.90
18721;DHT22;9489;50.948;3.114;2023-11-21T03:47:37;10.60;99.90
18721;DHT22;9489;50.948;3.114;2023-11-21T03:50:03;10.50;99.90
18721;DHT22;9489;50.948;3.114;2023-11-21T03:52:29;10.60;99.90
18721;DHT22;9489;50.948;3.114;2023-11-21T03:54:55;10.50;99.90
18721;DHT22;9489;50.948;3.114;2023-11-21T03:57:21;10.50;99.90
18721;DHT22;9489;50.948;3.114;2023-11-21T03:59:47;10.60;99.90
18721;DHT22;9489;50.948;3.114;2023-11-21T04:02:13;10.50;99.90
18721;DHT22;9489;50.948;3.114;2023-11-21T04:04:38;10.60;99.90
18721;DHT22;9489;50.948;3.114;2023-11-21T04:07:04;10.60;99.90
18721;DHT22;9489;50.948;3.114;2023-11-21T04:09:30;10.60;99.90
18721;DHT22;9489;50.948;3.114;2023-11-21T04:11:56;10.60;99.90
18721;DHT22;9489;50.948;3.114;2023-11-21T04:14:22;10.60;99.90
18721;DHT22;9489;50.948;3.114;2023-11-21T04:16:48;10.60;99.90
18721;DHT22;9489;50.948;3.114;2023-11-21T04:19:14;10.70;99.90
18721;DHT22;9489;50.948;3.114;2023-11-21T04:21:41;10.60;99.90
18721;DHT22;9489;50.948;3.114;2023-11-21T04:24:06;10.60;99.90
18721;DHT22;9489;50.948;3.114;2023-11-21T04:26:32;10.60;99.90
18721;DHT22;9489;50.948;3.114;2023-11-21T04:28:58;10.70;99.90
18721;DHT22;9489;50.948;3.114;2023-11-21T04:31:24;10.70;99.90
18721;DHT22;9489;50.948;3.114;2023-11-21T04:33:50;10.70;99.90
18721;DHT22;9489;50.948;3.114;2023-11-21T04:36:15;10.70;99.90
18721;DHT22;9489;50.948;3.114;2023-11-21T04:38:41;10.70;99.90
18721;DHT22;9489;50.948;3.114;2023-11-21T04:41:07;10.80;99.90
18721;DHT22;9489;50.948;3.114;2023-11-21T04:43:33;10.80;99.90
18721;DHT22;9489;50.948;3.114;2023-11-21T04:45:58;10.80;99.90
18721;DHT22;9489;50.948;3.114;2023-11-21T04:48:24;10.80;99.90
18721;DHT22;9489;50.948;3.114;2023-11-21T04:50:50;10.90;99.90
18721;DHT22;9489;50.948;3.114;2023-11-21T04:53:17;10.90;99.90
18721;DHT22;9489;50.948;3.114;2023-11-21T04:55:42;10.90;99.90
18721;DHT22;9489;50.948;3.114;2023-11-21T04:58:08;10.90;99.90
18721;DHT22;9489;50.948;3.114;2023-11-21T05:00:34;10.90;99.90
18721;DHT22;9489;50.948;3.114;2023-11-21T05:03:00;10.90;99.90
18721;DHT22;9489;50.948;3.114;2023-11-21T05:05:30;10.90;99.90
18721;DHT22;9489;50.948;3.114;2023-11-21T05:07:56;10.90;99.90
18721;DHT22;9489;50.948;3.114;2023-11-21T05:10:21;11.00;99.90
18721;DHT22;9489;50.948;3.114;2023-11-21T05:12:48;11.00;99.90
18721;DHT22;9489;50.948;3.114;2023-11-21T05:15:16;11.00;99.90
18721;DHT22;9489;50.948;3.114;2023-11-21T05:17:43;11.10;99.90
18721;DHT22;9489;50.948;3.114;2023-11-21T05:20:13;11.10;99.90
18721;DHT22;9489;50.948;3.114;2023-11-21T05:22:42;11.10;99.90
18721;DHT22;9489;50.948;3.114;2023-11-21T05:25:09;11.10;99.90
18721;DHT22;9489;50.948;3.114;2023-11-21T05:27:35;11.10;99.90
18721;DHT22;9489;50.948;3.114;2023-11-21T05:30:04;11.20;99.90
18721;DHT22;9489;50.948;3.114;2023-11-21T05:32:38;11.20;99.90
18721;DHT22;9489;50.948;3.114;2023-11-21T05:35:04;11.10;99.90
18721;DHT22;9489;50.948;3.114;2023-11-21T05:37:35;11.10;99.90
18721;DHT22;9489;50.948;3.114;2023-11-21T05:40:01;11.20;99.90
18721;DHT22;9489;50.948;3.114;2023-11-21T05:42:34;11.10;99.90
18721;DHT22;9489;50.948;3.114;2023-11-21T05:45:01;11.10;99.90
18721;DHT22;9489;50.948;3.114;2023-11-21T05:47:44;11.10;99.90
18721;DHT22;9489;50.948;3.114;2023-11-21T05:50:13;11.10;99.90
18721;DHT22;9489;50.948;3.114;2023-11-21T05:52:40;11.20;99.90
18721;DHT22;9489;50.948;3.114;2023-11-21T05:55:06;11.10;99.90
18721;DHT22;9489;50.948;3.114;2023-11-21T05:57:36;11.20;99.90
18721;DHT22;9489;50.948;3.114;2023-11-21T06:00:08;11.10;99.90
18721;DHT22;9489;50.948;3.114;2023-11-21T06:02:41;11.10;99.90
18721;DHT22;9489;50.948;3.114;2023-11-21T06:05:07;11.20;99.90
18721;DHT22;9489;50.948;3.114;2023-11-21T06:07:33;11.10;99.90
18721;DHT22;9489;50.948;3.114;2023-11-21T06:09:59;11.10;99.90
18721;DHT22;9489;50.948;3.114;2023-11-21T06:12:25;11.00;99.90
18721;DHT22;9489;50.948;3.114;2023-11-21T06:14:50;11.00;99.90
18721;DHT22;9489;50.948;3.114;2023-11-21T06:17:17;11.00;99.90
18721;DHT22;9489;50.948;3.114;2023-11-21T06:19:44;11.00;99.90
18721;DHT22;9489;50.948;3.114;2023-11-21T06:22:11;11.00;99.90
18721;DHT22;9489;50.948;3.114;2023-11-21T06:24:37;10.90;99.90
18721;DHT22;9489;50.948;3.114;2023-11-21T06:27:05;10.90;99.90
18721;DHT22;9489;50.948;3.114;2023-11-21T06:29:31;10.80;99.90
18721;DHT22;9489;50.948;3.114;2023-11-21T06:31:57;10.70;99.90
18721;DHT22;9489;50.948;3.114;2023-11-21T06:34:24;10.70;99.90
18721;DHT22;9489;50.948;3.114;2023-11-21T06:36:49;10.60;99.90
18721;DHT22;9489;50.948;3.114;2023-11-21T06:39:15;10.60;99.90
18721;DHT22;9489;50.948;3.114;2023-11-21T06:41:42;10.50;99.90
18721;DHT22;9489;50.948;3.114;2023-11-21T06:44:08;10.50;99.90
18721;DHT22;9489;50.948;3.114;2023-11-21T06:46:34;10.50;99.90
18721;DHT22;9489;50.948;3.114;2023-11-21T06:49:00;10.50;99.90
18721;DHT22;9489;50.948;3.114;2023-11-21T06:51:25;10.50;99.90
18721;DHT22;9489;50.948;3.114;2023-11-21T06:53:51;10.60;99.90
18721;DHT22;9489;50.948;3.114;2023-11-21T06:56:17;10.50;99.90
18721;DHT22;9489;50.948;3.114;2023-11-21T06:58:45;10.60;99.90
18721;DHT22;9489;50.948;3.114;2023-11-21T07:01:12;10.60;99.90
18721;DHT22;9489;50.948;3.114;2023-11-21T07:03:37;10.60;99.90
18721;DHT22;9489;50.948;3.114;2023-11-21T07:06:04;10.60;99.90
18721;DHT22;9489;50.948;3.114;2023-11-21T07:08:29;10.60;99.90
18721;DHT22;9489;50.948;3.114;2023-11-21T07:10:55;10.60;99.90
18721;DHT22;9489;50.948;3.114;2023-11-21T07:13:21;10.60;99.90
18721;DHT22;9489;50.948;3.114;2023-11-21T07:15:47;10.60;99.90
18721;DHT22;9489;50.948;3.114;2023-11-21T07:18:13;10.70;99.90
18721;DHT22;9489;50.948;3.114;2023-11-21T07:20:39;10.70;99.90
18721;DHT22;9489;50.948;3.114;2023-11-21T07:23:05;10.70;99.90
18721;DHT22;9489;50.948;3.114;2023-11-21T07:25:32;10.70;99.90
18721;DHT22;9489;50.948;3.114;2023-11-21T07:27:59;10.70;99.90
18721;DHT22;9489;50.948;3.114;2023-11-21T07:30:25;10.70;99.90
18721;DHT22;9489;50.948;3.114;2023-11-21T07:32:50;10.70;99.90
18721;DHT22;9489;50.948;3.114;2023-11-21T07:35:16;10.70;99.90
18721;DHT22;9489;50.948;3.114;2023-11-21T07:37:42;10.70;99.90
18721;DHT22;9489;50.948;3.114;2023-11-21T07:40:09;10.70;99.90
18721;DHT22;9489;50.948;3.114;2023-11-21T07:42:37;10.70;99.90
18721;DHT22;9489;50.948;3.114;2023-11-21T07:45:04;10.80;99.90
18721;DHT22;9489;50.948;3.114;2023-11-21T07:47:29;10.90;99.90
18721;DHT22;9489;50.948;3.114;2023-11-21T07:49:55;10.90;99.90
18721;DHT22;9489;50.948;3.114;2023-11-21T07:52:24;10.90;99.90
18721;DHT22;9489;50.948;3.114;2023-11-21T07:54:49;10.90;99.90
18721;DHT22;9489;50.948;3.114;2023-11-21T07:57:16;10.90;99.90
18721;DHT22;9489;50.948;3.114;2023-11-21T07:59:42;10.90;99.90
18721;DHT22;9489;50.948;3.114;2023-11-21T08:02:07;10.90;99.90
18721;DHT22;9489;50.948;3.114;2023-11-21T08:04:33;11.00;99.90
18721;DHT22;9489;50.948;3.114;2023-11-21T08:07:01;11.00;99.90
18721;DHT22;9489;50.948;3.114;2023-11-21T08:09:27;11.00;99.90
18721;DHT22;9489;50.948;3.114;2023-11-21T08:11:52;11.10;99.90
18721;DHT22;9489;50.948;3.114;2023-11-21T08:14:18;11.10;99.90
18721;DHT22;9489;50.948;3.114;2023-11-21T08:16:45;11.10;99.90
18721;DHT22;9489;50.948;3.114;2023-11-21T08:19:11;11.10;99.90
18721;DHT22;9489;50.948;3.114;2023-11-21T08:21:37;11.10;99.90
18721;DHT22;9489;50.948;3.114;2023-11-21T08:24:06;11.10;99.90
18721;DHT22;9489;50.948;3.114;2023-11-21T08:26:36;11.00;99.90
18721;DHT22;9489;50.948;3.114;2023-11-21T08:29:02;11.00;99.90
18721;DHT22;9489;50.948;3.114;2023-11-21T08:31:28;11.00;99.90
18721;DHT22;9489;50.948;3.114;2023-11-21T08:33:54;11.00;99.90
18721;DHT22;9489;50.948;3.114;2023-11-21T08:36:25;11.10;99.90
18721;DHT22;9489;50.948;3.114;2023-11-21T08:38:51;11.20;99.90
18721;DHT22;9489;50.948;3.114;2023-11-21T08:41:20;11.30;99.90
18721;DHT22;9489;50.948;3.114;2023-11-21T08:43:49;11.30;99.90
18721;DHT22;9489;50.948;3.114;2023-11-21T08:46:15;11.40;99.90
18721;DHT22;9489;50.948;3.114;2023-11-21T08:48:42;11.50;99.90
18721;DHT22;9489;50.948;3.114;2023-11-21T08:51:10;11.80;99.90
18721;DHT22;9489;50.948;3.114;2023-11-21T08:53:37;12.10;99.90
18721;DHT22;9489;50.948;3.114;2023-11-21T08:56:03;12.60;99.90
18721;DHT22;9489;50.948;3.114;2023-11-21T08:58:30;13.40;99.90
18721;DHT22;9489;50.948;3.114;2023-11-21T09:00:56;13.80;99.90
18721;DHT22;9489;50.948;3.114;2023-11-21T09:03:21;14.10;99.90
18721;DHT22;9489;50.948;3.114;2023-11-21T09:05:47;14.40;99.90
18721;DHT22;9489;50.948;3.114;2023-11-21T09:08:13;15.10;99.90
18721;DHT22;9489;50.948;3.114;2023-11-21T09:10:39;15.60;99.90
18721;DHT22;9489;50.948;3.114;2023-11-21T09:13:05;16.50;99.90
18721;DHT22;9489;50.948;3.114;2023-11-21T09:15:30;17.20;99.90
18721;DHT22;9489;50.948;3.114;2023-11-21T09:17:56;17.90;99.90
18721;DHT22;9489;50.948;3.114;2023-11-21T09:20:22;18.70;99.90
18721;DHT22;9489;50.948;3.114;2023-11-21T09:22:48;19.20;99.90
18721;DHT22;9489;50.948;3.114;2023-11-21T09:25:14;19.90;99.90
18721;DHT22;9489;50.948;3.114;2023-11-21T09:27:40;20.40;99.90
18721;DHT22;9489;50.948;3.114;2023-11-21T09:30:07;21.00;99.90
18721;DHT22;9489;50.948;3.114;2023-11-21T09:32:37;21.60;99.90
18721;DHT22;9489;50.948;3.114;2023-11-21T09:35:06;22.20;99.90
18721;DHT22;9489;50.948;3.114;2023-11-21T09:37:34;22.30;99.90
18721;DHT22;9489;50.948;3.114;2023-11-21T09:40:01;21.50;99.90
18721;DHT22;9489;50.948;3.114;2023-11-21T09:42:33;20.40;99.90
18721;DHT22;9489;50.948;3.114;2023-11-21T09:45:25;19.30;99.90
18721;DHT22;9489;50.948;3.114;2023-11-21T09:47:53;18.20;99.90
18721;DHT22;9489;50.948;3.114;2023-11-21T09:50:22;17.40;99.90
18721;DHT22;9489;50.948;3.114;2023-11-21T09:53:36;16.80;99.90
18721;DHT22;9489;50.948;3.114;2023-11-21T09:55:44;16.20;99.90
18721;DHT22;9489;50.948;3.114;2023-11-21T09:58:11;15.80;99.90
18721;DHT22;9489;50.948;3.114;2023-11-21T10:00:44;15.40;99.90
18721;DHT22;9489;50.948;3.114;2023-11-21T10:03:11;15.00;99.90
18721;DHT22;9489;50.948;3.114;2023-11-21T10:05:37;14.60;99.90
18721;DHT22;9489;50.948;3.114;2023-11-21T10:08:10;14.50;99.90
18721;DHT22;9489;50.948;3.114;2023-11-21T10:10:46;14.20;99.90
18721;DHT22;9489;50.948;3.114;2023-11-21T10:13:15;14.10;99.90
18721;DHT22;9489;50.948;3.114;2023-11-21T10:15:43;13.90;99.90
18721;DHT22;9489;50.948;3.114;2023-11-21T10:18:15;13.70;99.90
18721;DHT22;9489;50.948;3.114;2023-11-21T10:20:41;13.60;99.90
18721;DHT22;9489;50.948;3.114;2023-11-21T10:23:08;13.50;99.90
18721;DHT22;9489;50.948;3.114;2023-11-21T10:25:37;13.40;99.90
18721;DHT22;9489;50.948;3.114;2023-11-21T10:28:03;13.30;99.90
18721;DHT22;9489;50.948;3.114;2023-11-21T10:30:36;13.30;99.90
18721;DHT22;9489;50.948;3.114;2023-11-21T10:33:06;13.40;99.90
18721;DHT22;9489;50.948;3.114;2023-11-21T10:35:42;13.40;99.90
18721;DHT22;9489;50.948;3.114;2023-11-21T10:38:08;13.50;99.90
18721;DHT22;9489;50.948;3.114;2023-11-21T10:40:42;13.50;99.90
18721;DHT22;9489;50.948;3.114;2023-11-21T10:43:08;13.60;99.90
18721;DHT22;9489;50.948;3.114;2023-11-21T10:45:38;13.80;99.90
18721;DHT22;9489;50.948;3.114;2023-11-21T10:48:08;14.10;99.90
18721;DHT22;9489;50.948;3.114;2023-11-21T10:50:36;14.60;99.90
18721;DHT22;9489;50.948;3.114;2023-11-21T10:53:06;14.60;99.90
18721;DHT22;9489;50.948;3.114;2023-11-21T10:55:32;14.70;99.90
18721;DHT22;9489;50.948;3.114;2023-11-21T10:58:00;14.80;99.90
18721;DHT22;9489;50.948;3.114;2023-11-21T11:00:28;14.70;99.90
18721;DHT22;9489;50.948;3.114;2023-11-21T11:02:54;14.70;99.90
18721;DHT22;9489;50.948;3.114;2023-11-21T11:05:25;15.10;99.90
18721;DHT22;9489;50.948;3.114;2023-11-21T11:07:56;15.60;99.90
18721;DHT22;9489;50.948;3.114;2023-11-21T11:10:26;16.10;99.90
18721;DHT22;9489;50.948;3.114;2023-11-21T11:12:53;16.10;99.90
18721;DHT22;9489;50.948;3.114;2023-11-21T11:15:21;16.10;99.90
18721;DHT22;9489;50.948;3.114;2023-11-21T11:17:48;16.20;99.90
18721;DHT22;9489;50.948;3.114;2023-11-21T11:20:16;16.20;99.90
18721;DHT22;9489;50.948;3.114;2023-11-21T11:28:15;15.50;99.90
18721;DHT22;9489;50.948;3.114;2023-11-21T11:31:10;15.30;99.90
18721;DHT22;9489;50.948;3.114;2023-11-21T11:34:17;15.10;99.90
18721;DHT22;9489;50.948;3.114;2023-11-21T11:37:11;14.90;99.90
18721;DHT22;9489;50.948;3.114;2023-11-21T11:39:41;14.50;99.90
18721;DHT22;9489;50.948;3.114;2023-11-21T11:42:15;14.20;99.90
18721;DHT22;9489;50.948;3.114;2023-11-21T11:47:15;14.00;99.90
18721;DHT22;9489;50.948;3.114;2023-11-21T11:50:01;14.00;99.90
18721;DHT22;9489;50.948;3.114;2023-11-21T11:52:38;13.90;99.90
18721;DHT22;9489;50.948;3.114;2023-11-21T11:55:07;13.90;99.90
18721;DHT22;9489;50.948;3.114;2023-11-21T11:57:35;14.00;99.90
18721;DHT22;9489;50.948;3.114;2023-11-21T12:00:16;14.20;99.90
18721;DHT22;9489;50.948;3.114;2023-11-21T12:02:52;14.40;99.90
18721;DHT22;9489;50.948;3.114;2023-11-21T12:05:19;14.60;99.90
18721;DHT22;9489;50.948;3.114;2023-11-21T12:10:16;14.80;99.90
18721;DHT22;9489;50.948;3.114;2023-11-21T12:12:47;14.80;99.90
18721;DHT22;9489;50.948;3.114;2023-11-21T12:15:14;14.70;99.90
18721;DHT22;9489;50.948;3.114;2023-11-21T12:17:41;14.60;99.90
18721;DHT22;9489;50.948;3.114;2023-11-21T12:20:08;14.40;99.90
18721;DHT22;9489;50.948;3.114;2023-11-21T12:23:09;14.20;99.90
18721;DHT22;9489;50.948;3.114;2023-11-21T12:25:35;14.00;99.90
18721;DHT22;9489;50.948;3.114;2023-11-21T12:28:02;14.00;99.90
18721;DHT22;9489;50.948;3.114;2023-11-21T12:30:33;14.10;99.90
18721;DHT22;9489;50.948;3.114;2023-11-21T12:33:02;14.30;99.90
18721;DHT22;9489;50.948;3.114;2023-11-21T12:35:32;14.20;99.90
18721;DHT22;9489;50.948;3.114;2023-11-21T12:38:03;14.20;99.90
18721;DHT22;9489;50.948;3.114;2023-11-21T12:40:30;14.30;99.90
18721;DHT22;9489;50.948;3.114;2023-11-21T12:42:57;14.30;99.90
18721;DHT22;9489;50.948;3.114;2023-11-21T12:45:25;14.20;99.90
18721;DHT22;9489;50.948;3.114;2023-11-21T12:48:04;14.10;99.90
18721;DHT22;9489;50.948;3.114;2023-11-21T12:50:33;13.90;99.90
18721;DHT22;9489;50.948;3.114;2023-11-21T12:53:11;13.80;99.90
18721;DHT22;9489;50.948;3.114;2023-11-21T12:55:43;13.70;99.90
18721;DHT22;9489;50.948;3.114;2023-11-21T12:58:15;13.50;99.90
18721;DHT22;9489;50.948;3.114;2023-11-21T13:00:48;13.60;99.90
18721;DHT22;9489;50.948;3.114;2023-11-21T13:03:15;13.70;99.90
18721;DHT22;9489;50.948;3.114;2023-11-21T13:05:44;13.70;99.90
18721;DHT22;9489;50.948;3.114;2023-11-21T13:08:12;13.70;99.90
18721;DHT22;9489;50.948;3.114;2023-11-21T13:10:43;13.70;99.90
18721;DHT22;9489;50.948;3.114;2023-11-21T13:13:11;13.80;99.90
18721;DHT22;9489;50.948;3.114;2023-11-21T13:15:51;13.80;99.90
18721;DHT22;9489;50.948;3.114;2023-11-21T13:18:17;13.80;99.90
18721;DHT22;9489;50.948;3.114;2023-11-21T13:20:44;13.80;99.90
18721;DHT22;9489;50.948;3.114;2023-11-21T13:23:10;13.70;99.90
18721;DHT22;9489;50.948;3.114;2023-11-21T13:25:42;13.70;99.90
18721;DHT22;9489;50.948;3.114;2023-11-21T13:28:08;13.70;99.90
18721;DHT22;9489;50.948;3.114;2023-11-21T13:30:35;13.70;99.90
18721;DHT22;9489;50.948;3.114;2023-11-21T13:33:04;13.70;99.90
18721;DHT22;9489;50.948;3.114;2023-11-21T13:35:37;13.90;99.90
18721;DHT22;9489;50.948;3.114;2023-11-21T13:38:10;14.00;99.90
18721;DHT22;9489;50.948;3.114;2023-11-21T13:40:37;14.10;99.90
18721;DHT22;9489;50.948;3.114;2023-11-21T13:43:09;14.20;99.90
18721;DHT22;9489;50.948;3.114;2023-11-21T13:45:39;14.10;99.90
18721;DHT22;9489;50.948;3.114;2023-11-21T13:48:08;14.10;99.90
18721;DHT22;9489;50.948;3.114;2023-11-21T13:50:42;14.10;99.90
18721;DHT22;9489;50.948;3.114;2023-11-21T13:53:23;13.90;99.90
18721;DHT22;9489;50.948;3.114;2023-11-21T13:55:49;13.80;99.90
18721;DHT22;9489;50.948;3.114;2023-11-21T13:58:16;13.70;99.90
18721;DHT22;9489;50.948;3.114;2023-11-21T14:00:48;13.70;99.90
18721;DHT22;9489;50.948;3.114;2023-11-21T14:03:22;13.70;99.90
18721;DHT22;9489;50.948;3.114;2023-11-21T14:05:48;13.70;99.90
18721;DHT22;9489;50.948;3.114;2023-11-21T14:08:23;13.70;99.90
18721;DHT22;9489;50.948;3.114;2023-11-21T14:10:49;13.70;99.90
18721;DHT22;9489;50.948;3.114;2023-11-21T14:13:18;13.60;99.90
18721;DHT22;9489;50.948;3.114;2023-11-21T14:15:45;13.40;99.90
18721;DHT22;9489;50.948;3.114;2023-11-21T14:18:12;13.30;99.90
18721;DHT22;9489;50.948;3.114;2023-11-21T14:20:43;13.20;99.90
18721;DHT22;9489;50.948;3.114;2023-11-21T14:23:10;13.10;99.90
18721;DHT22;9489;50.948;3.114;2023-11-21T14:25:36;13.10;99.90
18721;DHT22;9489;50.948;3.114;2023-11-21T14:28:03;13.00;99.90
18721;DHT22;9489;50.948;3.114;2023-11-21T14:30:30;13.00;99.90
18721;DHT22;9489;50.948;3.114;2023-11-21T14:32:58;13.00;99.90
18721;DHT22;9489;50.948;3.114;2023-11-21T14:35:24;12.90;99.90
18721;DHT22;9489;50.948;3.114;2023-11-21T14:37:50;12.90;99.90
18721;DHT22;9489;50.948;3.114;2023-11-21T14:40:16;12.90;99.90
18721;DHT22;9489;50.948;3.114;2023-11-21T14:42:43;12.90;99.90
18721;DHT22;9489;50.948;3.114;2023-11-21T14:45:13;12.90;99.90
18721;DHT22;9489;50.948;3.114;2023-11-21T14:47:42;13.00;99.90
18721;DHT22;9489;50.948;3.114;2023-11-21T14:50:13;13.00;99.90
18721;DHT22;9489;50.948;3.114;2023-11-21T14:53:02;13.00;99.90
18721;DHT22;9489;50.948;3.114;2023-11-21T14:55:34;12.80;99.90
18721;DHT22;9489;50.948;3.114;2023-11-21T14:58:20;12.70;99.90
18721;DHT22;9489;50.948;3.114;2023-11-21T15:00:58;12.60;99.90
18721;DHT22;9489;50.948;3.114;2023-11-21T15:03:28;12.50;99.90
18721;DHT22;9489;50.948;3.114;2023-11-21T15:06:00;12.50;99.90
18721;DHT22;9489;50.948;3.114;2023-11-21T15:08:51;12.40;99.90
18721;DHT22;9489;50.948;3.114;2023-11-21T15:11:22;12.40;99.90
18721;DHT22;9489;50.948;3.114;2023-11-21T15:13:55;12.30;99.90
18721;DHT22;9489;50.948;3.114;2023-11-21T15:16:21;12.20;99.90
18721;DHT22;9489;50.948;3.114;2023-11-21T15:18:46;12.10;99.90
18721;DHT22;9489;50.948;3.114;2023-11-21T15:21:12;12.10;99.90
18721;DHT22;9489;50.948;3.114;2023-11-21T15:23:38;12.00;99.90
18721;DHT22;9489;50.948;3.114;2023-11-21T15:26:06;12.00;99.90
18721;DHT22;9489;50.948;3.114;2023-11-21T15:28:34;11.90;99.90
18721;DHT22;9489;50.948;3.114;2023-11-21T15:31:00;11.90;99.90
18721;DHT22;9489;50.948;3.114;2023-11-21T15:33:28;11.80;99.90
18721;DHT22;9489;50.948;3.114;2023-11-21T15:35:53;11.70;99.90
18721;DHT22;9489;50.948;3.114;2023-11-21T15:38:20;11.70;99.90
18721;DHT22;9489;50.948;3.114;2023-11-21T15:40:47;11.60;99.90
18721;DHT22;9489;50.948;3.114;2023-11-21T15:43:13;11.50;99.90
18721;DHT22;9489;50.948;3.114;2023-11-21T15:45:39;11.50;99.90
18721;DHT22;9489;50.948;3.114;2023-11-21T15:48:05;11.40;99.90
18721;DHT22;9489;50.948;3.114;2023-11-21T15:50:31;11.40;99.90
18721;DHT22;9489;50.948;3.114;2023-11-21T15:52:57;11.30;99.90
18721;DHT22;9489;50.948;3.114;2023-11-21T15:55:24;11.30;99.90
18721;DHT22;9489;50.948;3.114;2023-11-21T15:57:49;11.30;99.90
18721;DHT22;9489;50.948;3.114;2023-11-21T16:00:15;11.20;99.90
18721;DHT22;9489;50.948;3.114;2023-11-21T16:02:45;11.20;99.90